createdAt,value
2023-09-09T00:00:00.104Z,99.90
2023-09-09T00:02:26.953Z,99.90
2023-09-09T00:04:55.490Z,99.90
2023-09-09T00:07:22.806Z,99.90
2023-09-09T00:09:50.239Z,99.90
2023-09-09T00:12:17.077Z,99.90
2023-09-09T00:14:43.759Z,99.90
2023-09-09T00:17:10.449Z,99.90
2023-09-09T00:19:37.085Z,99.90
2023-09-09T00:22:03.986Z,99.90
2023-09-09T00:24:30.645Z,99.90
2023-09-09T00:26:57.320Z,99.90
2023-09-09T00:29:23.963Z,99.90
2023-09-09T00:31:51.213Z,99.90
2023-09-09T00:34:18.205Z,99.90
2023-09-09T00:36:44.887Z,99.90
2023-09-09T00:39:11.537Z,99.90
2023-09-09T00:41:38.158Z,99.90
2023-09-09T00:44:05.850Z,99.90
2023-09-09T00:46:32.802Z,99.90
2023-09-09T00:49:01.804Z,99.90
2023-09-09T00:51:28.589Z,99.90
2023-09-09T00:53:55.392Z,99.90
2023-09-09T00:56:22.511Z,99.90
2023-09-09T00:58:49.238Z,99.90
2023-09-09T01:01:15.971Z,99.90
2023-09-09T01:03:43.720Z,99.90
2023-09-09T01:06:10.754Z,99.90
2023-09-09T01:08:38.900Z,99.90
2023-09-09T01:11:06.900Z,99.90
2023-09-09T01:13:36.136Z,99.90
2023-09-09T01:16:03.583Z,99.90
2023-09-09T01:18:32.482Z,99.90
2023-09-09T01:21:05.590Z,99.90
2023-09-09T01:23:32.574Z,99.90
2023-09-09T01:25:59.224Z,99.90
2023-09-09T01:28:25.935Z,99.90
2023-09-09T01:30:53.227Z,99.90
2023-09-09T01:33:20.357Z,99.90
2023-09-09T01:35:47.705Z,99.90
2023-09-09T01:38:14.692Z,99.90
2023-09-09T01:40:41.321Z,99.90
2023-09-09T01:43:08.201Z,99.90
2023-09-09T01:45:34.873Z,99.90
2023-09-09T01:48:01.708Z,99.90
2023-09-09T01:50:28.493Z,99.90
2023-09-09T01:52:56.247Z,99.90
2023-09-09T01:55:22.984Z,99.90
2023-09-09T01:57:49.628Z,99.90
2023-09-09T02:00:16.449Z,99.90
2023-09-09T02:02:43.217Z,99.90
2023-09-09T02:05:10.899Z,99.90
2023-09-09T02:07:37.759Z,99.90
2023-09-09T02:10:04.745Z,99.90
2023-09-09T02:12:31.465Z,99.90
2023-09-09T02:14:58.175Z,99.90
2023-09-09T02:17:24.874Z,99.90
2023-09-09T02:19:56.685Z,99.90
2023-09-09T02:22:23.879Z,99.90
2023-09-09T02:24:57.374Z,99.90
2023-09-09T02:27:24.783Z,99.90
2023-09-09T02:29:51.635Z,99.90
2023-09-09T02:32:19.151Z,99.90
2023-09-09T02:34:46.176Z,99.90
2023-09-09T02:37:20.400Z,99.90
2023-09-09T02:39:47.971Z,99.90
2023-09-09T02:42:17.296Z,99.90
2023-09-09T02:44:45.060Z,99.90
2023-09-09T02:47:13.703Z,99.90
2023-09-09T02:49:41.652Z,99.90
2023-09-09T02:52:08.767Z,99.90
2023-09-09T02:54:36.361Z,99.90
2023-09-09T02:57:04.945Z,99.90
2023-09-09T02:59:35.580Z,99.90
2023-09-09T03:02:02.772Z,99.90
2023-09-09T03:04:29.409Z,99.90
2023-09-09T03:06:56.121Z,99.90
2023-09-09T03:09:22.982Z,99.90
2023-09-09T03:11:49.710Z,99.90
2023-09-09T03:14:16.348Z,99.90
2023-09-09T03:16:43.136Z,99.90
2023-09-09T03:19:10.223Z,99.90
2023-09-09T03:21:36.866Z,99.90
2023-09-09T03:24:03.662Z,99.90
2023-09-09T03:26:33.078Z,99.90
2023-09-09T03:29:00.514Z,99.90
2023-09-09T03:31:27.701Z,99.90
2023-09-09T03:33:54.465Z,99.90
2023-09-09T03:36:21.382Z,99.90
2023-09-09T03:38:48.031Z,99.90
2023-09-09T03:41:14.727Z,99.90
2023-09-09T03:43:41.986Z,99.90
2023-09-09T03:46:08.998Z,99.90
2023-09-09T03:48:35.766Z,99.90
2023-09-09T03:51:03.570Z,99.90
2023-09-09T03:53:30.645Z,99.90
2023-09-09T03:55:59.581Z,99.90
2023-09-09T03:58:26.281Z,99.90
2023-09-09T04:01:10.187Z,99.90
2023-09-09T04:03:38.717Z,99.90
2023-09-09T04:06:11.179Z,99.90
2023-09-09T04:08:39.537Z,99.90
2023-09-09T04:11:06.723Z,99.90
2023-09-09T04:13:38.561Z,99.90
2023-09-09T04:16:05.603Z,99.90
2023-09-09T04:18:44.836Z,99.90
2023-09-09T04:21:13.337Z,99.90
2023-09-09T04:23:40.440Z,99.90
2023-09-09T04:26:07.612Z,99.90
2023-09-09T04:28:34.754Z,99.90
2023-09-09T04:31:01.744Z,99.90
2023-09-09T04:33:28.446Z,99.90
2023-09-09T04:35:55.221Z,99.90
2023-09-09T04:38:24.118Z,99.90
2023-09-09T04:40:50.761Z,99.90
2023-09-09T04:43:19.070Z,99.90
2023-09-09T04:45:45.863Z,99.90
2023-09-09T04:48:12.692Z,99.90
2023-09-09T04:50:39.442Z,99.90
2023-09-09T04:53:06.781Z,99.90
2023-09-09T04:55:33.572Z,99.90
2023-09-09T04:58:00.419Z,99.90
2023-09-09T05:00:27.149Z,99.90
2023-09-09T05:02:53.795Z,99.90
2023-09-09T05:05:20.601Z,99.90
2023-09-09T05:07:47.368Z,99.90
2023-09-09T05:10:14.854Z,99.90
2023-09-09T05:12:43.657Z,99.90
2023-09-09T05:15:14.414Z,99.90
2023-09-09T05:17:41.452Z,99.90
2023-09-09T05:20:09.006Z,99.90
2023-09-09T05:22:35.660Z,99.90
2023-09-09T05:25:02.444Z,99.90
2023-09-09T05:27:29.436Z,99.90
2023-09-09T05:29:56.018Z,99.90
2023-09-09T05:32:23.239Z,99.90
2023-09-09T05:34:49.998Z,99.90
2023-09-09T05:37:16.950Z,99.90
2023-09-09T05:39:43.614Z,99.90
2023-09-09T05:42:10.262Z,99.90
2023-09-09T05:44:37.678Z,99.90
2023-09-09T05:47:08.062Z,99.90
2023-09-09T05:49:39.567Z,99.90
2023-09-09T05:52:07.509Z,99.90
2023-09-09T05:54:34.263Z,99.90
2023-09-09T05:57:01.441Z,99.90
2023-09-09T05:59:28.192Z,99.90
2023-09-09T06:01:54.893Z,99.90
2023-09-09T06:04:21.646Z,99.90
2023-09-09T06:06:49.089Z,99.90
2023-09-09T06:09:16.202Z,99.90
2023-09-09T06:11:42.911Z,99.90
2023-09-09T06:14:09.622Z,99.90
2023-09-09T06:16:36.342Z,99.90
2023-09-09T06:19:03.215Z,99.90
2023-09-09T06:21:29.952Z,99.90
2023-09-09T06:23:56.578Z,99.90
2023-09-09T06:26:23.201Z,99.90
2023-09-09T06:28:49.909Z,99.90
2023-09-09T06:31:16.630Z,99.90
2023-09-09T06:33:45.279Z,99.90
2023-09-09T06:36:12.608Z,99.90
2023-09-09T06:38:39.493Z,99.90
2023-09-09T06:41:07.512Z,99.90
2023-09-09T06:43:34.182Z,99.90
2023-09-09T06:46:01.394Z,99.90
2023-09-09T06:48:30.391Z,99.90
2023-09-09T06:50:57.557Z,99.90
2023-09-09T06:53:25.650Z,99.90
2023-09-09T06:55:52.779Z,99.90
2023-09-09T06:58:19.613Z,99.90
2023-09-09T07:00:53.782Z,99.90
2023-09-09T07:03:21.659Z,99.90
2023-09-09T07:05:49.242Z,99.90
2023-09-09T07:08:16.190Z,99.90
2023-09-09T07:10:52.731Z,99.90
2023-09-09T07:13:20.057Z,99.90
2023-09-09T07:15:46.730Z,99.90
2023-09-09T07:18:13.531Z,99.90
2023-09-09T07:20:40.285Z,99.90
2023-09-09T07:23:06.911Z,99.90
2023-09-09T07:25:35.019Z,99.90
2023-09-09T07:28:01.906Z,99.90
2023-09-09T07:30:28.965Z,99.90
2023-09-09T07:32:56.191Z,99.90
2023-09-09T07:35:23.240Z,99.90
2023-09-09T07:37:52.254Z,99.90
2023-09-09T07:40:19.486Z,99.90
2023-09-09T07:42:46.166Z,99.90
2023-09-09T07:45:13.117Z,99.90
2023-09-09T07:47:39.800Z,99.90
2023-09-09T07:50:07.374Z,99.90
2023-09-09T07:52:33.974Z,99.90
2023-09-09T07:55:00.630Z,99.90
2023-09-09T07:57:27.297Z,99.90
2023-09-09T07:59:53.998Z,99.90
2023-09-09T08:02:20.616Z,99.90
2023-09-09T08:04:48.314Z,99.90
2023-09-09T08:07:15.067Z,99.90
2023-09-09T08:09:42.265Z,99.90
2023-09-09T08:12:08.911Z,99.90
2023-09-09T08:14:35.571Z,99.90
2023-09-09T08:17:02.246Z,99.90
2023-09-09T08:19:28.991Z,99.90
2023-09-09T08:21:55.600Z,99.90
2023-09-09T08:24:22.876Z,99.90
2023-09-09T08:26:49.695Z,99.90
2023-09-09T08:29:16.363Z,99.90
2023-09-09T08:31:43.083Z,99.90
2023-09-09T08:34:09.769Z,99.90
2023-09-09T08:36:36.384Z,99.90
2023-09-09T08:39:03.061Z,99.90
2023-09-09T08:41:44.228Z,99.90
2023-09-09T08:45:01.085Z,99.90
2023-09-09T08:47:30.564Z,99.90
2023-09-09T08:50:00.112Z,99.90
2023-09-09T08:52:28.728Z,99.90
2023-09-09T08:54:57.357Z,99.90
2023-09-09T08:57:26.753Z,99.90
2023-09-09T08:59:55.790Z,99.90
2023-09-09T09:02:22.556Z,99.90
2023-09-09T09:04:50.338Z,99.90
2023-09-09T09:07:17.137Z,99.90
2023-09-09T09:09:43.817Z,99.90
2023-09-09T09:12:14.136Z,99.90
2023-09-09T09:14:47.764Z,99.90
2023-09-09T09:17:17.763Z,99.90
2023-09-09T09:19:44.660Z,99.90
2023-09-09T09:22:14.883Z,99.80
2023-09-09T09:24:45.745Z,99.50
2023-09-09T09:27:16.521Z,99.40
2023-09-09T09:29:46.323Z,99.20
2023-09-09T09:32:13.369Z,99.30
2023-09-09T09:34:40.215Z,99.40
2023-09-09T09:37:15.739Z,99.10
2023-09-09T09:39:44.385Z,98.30
2023-09-09T09:42:14.461Z,98.10
2023-09-09T09:44:41.342Z,97.80
2023-09-09T09:47:09.935Z,97.60
2023-09-09T09:49:47.667Z,97.40
2023-09-09T09:52:24.794Z,96.70
2023-09-09T09:54:52.681Z,96.70
2023-09-09T09:57:21.718Z,96.50
2023-09-09T09:59:48.641Z,96.00
2023-09-09T10:02:16.577Z,95.80
2023-09-09T10:04:43.919Z,95.60
2023-09-09T10:07:17.701Z,95.20
2023-09-09T10:10:00.083Z,95.10
2023-09-09T10:12:46.541Z,94.60
2023-09-09T10:15:17.409Z,94.10
2023-09-09T10:17:45.471Z,94.00
2023-09-09T10:20:12.938Z,93.20
2023-09-09T10:22:42.627Z,92.90
2023-09-09T10:25:12.005Z,92.00
2023-09-09T10:27:40.517Z,91.50
2023-09-09T10:30:11.135Z,91.30
2023-09-09T10:32:38.313Z,91.00
2023-09-09T10:35:07.185Z,90.90
2023-09-09T10:37:36.407Z,90.70
2023-09-09T10:40:05.395Z,90.20
2023-09-09T10:42:35.991Z,90.00
2023-09-09T10:45:31.389Z,89.50
2023-09-09T10:48:05.528Z,89.60
2023-09-09T10:50:45.561Z,88.50
2023-09-09T10:53:29.953Z,85.70
2023-09-09T10:56:00.112Z,83.60
2023-09-09T10:58:34.371Z,83.80
2023-09-09T11:01:01.158Z,82.20
2023-09-09T11:03:41.326Z,81.50
2023-09-09T11:06:13.105Z,80.20
2023-09-09T11:08:42.554Z,79.00
2023-09-09T11:11:14.156Z,78.00
2023-09-09T11:13:52.134Z,77.30
2023-09-09T11:16:39.363Z,77.40
2023-09-09T11:19:11.712Z,78.70
2023-09-09T11:21:44.466Z,78.90
2023-09-09T11:24:11.632Z,76.90
2023-09-09T11:26:40.121Z,77.70
2023-09-09T11:29:12.381Z,77.70
2023-09-09T11:31:48.577Z,77.70
2023-09-09T11:34:16.043Z,78.20
2023-09-09T11:36:44.584Z,78.20
2023-09-09T11:39:12.506Z,78.00
2023-09-09T11:41:39.324Z,77.40
2023-09-09T11:44:09.956Z,77.10
2023-09-09T11:46:47.629Z,76.50
2023-09-09T11:49:17.286Z,76.90
2023-09-09T11:51:44.510Z,74.60
2023-09-09T11:54:12.794Z,75.00
2023-09-09T11:56:39.605Z,75.30
2023-09-09T11:59:10.703Z,75.90
2023-09-09T12:01:48.159Z,76.10
2023-09-09T12:04:15.987Z,75.40
2023-09-09T12:06:46.390Z,74.10
2023-09-09T12:09:14.133Z,73.10
2023-09-09T12:11:42.369Z,71.00
2023-09-09T12:14:10.916Z,70.60
2023-09-09T12:16:40.411Z,70.70
2023-09-09T12:19:12.530Z,70.50
2023-09-09T12:21:50.129Z,69.90
2023-09-09T12:24:17.055Z,68.90
2023-09-09T12:26:54.327Z,68.40
2023-09-09T12:29:21.328Z,68.10
2023-09-09T12:31:56.143Z,66.70
2023-09-09T12:34:25.174Z,66.60
2023-09-09T12:36:56.456Z,66.80
2023-09-09T12:39:27.356Z,66.20
2023-09-09T12:42:01.182Z,65.80
2023-09-09T12:44:28.259Z,65.90
2023-09-09T12:46:55.304Z,66.30
2023-09-09T12:49:22.214Z,65.50
2023-09-09T12:51:48.910Z,65.80
2023-09-09T12:54:15.590Z,65.70
2023-09-09T12:56:42.352Z,66.20
2023-09-09T12:59:09.117Z,66.80
2023-09-09T13:01:41.035Z,65.80
2023-09-09T13:04:07.711Z,65.80
2023-09-09T13:06:34.351Z,65.70
2023-09-09T13:09:00.948Z,65.90
2023-09-09T13:11:27.754Z,66.20
2023-09-09T13:14:01.678Z,66.40
2023-09-09T13:16:34.376Z,66.70
2023-09-09T13:19:01.173Z,66.20
2023-09-09T13:21:27.867Z,66.50
2023-09-09T13:23:54.549Z,65.70
2023-09-09T13:26:21.189Z,65.50
2023-09-09T13:28:47.810Z,65.70
2023-09-09T13:31:14.463Z,65.60
2023-09-09T13:33:41.642Z,65.80
2023-09-09T13:36:08.551Z,66.20
2023-09-09T13:38:35.182Z,66.10
2023-09-09T13:41:01.810Z,65.70
2023-09-09T13:43:28.450Z,65.60
2023-09-09T13:45:55.726Z,66.10
2023-09-09T13:48:23.822Z,64.80
2023-09-09T13:50:50.884Z,64.60
2023-09-09T13:53:17.557Z,64.10
2023-09-09T13:55:44.234Z,64.90
2023-09-09T13:58:10.894Z,65.60
2023-09-09T14:00:37.653Z,65.70
2023-09-09T14:03:05.111Z,65.50
2023-09-09T14:05:31.918Z,65.50
2023-09-09T14:07:58.566Z,65.40
2023-09-09T14:10:25.157Z,66.00
2023-09-09T14:12:51.800Z,65.80
2023-09-09T14:15:18.598Z,65.50
2023-09-09T14:17:45.710Z,64.60
2023-09-09T14:20:12.461Z,64.80
2023-09-09T14:22:39.120Z,64.90
2023-09-09T14:25:06.288Z,65.40
2023-09-09T14:27:32.880Z,64.80
2023-09-09T14:29:59.678Z,65.10
2023-09-09T14:32:26.389Z,65.40
2023-09-09T14:34:53.081Z,65.80
2023-09-09T14:37:19.928Z,66.10
2023-09-09T14:39:46.672Z,65.20
2023-09-09T14:42:13.292Z,65.00
2023-09-09T14:44:40.058Z,65.70
2023-09-09T14:47:06.751Z,64.40
2023-09-09T14:49:33.539Z,64.50
2023-09-09T14:52:00.193Z,65.00
2023-09-09T14:54:26.876Z,64.80
2023-09-09T14:56:53.474Z,65.20
2023-09-09T14:59:20.201Z,65.50
2023-09-09T15:01:46.992Z,65.50
2023-09-09T15:04:13.653Z,65.20
2023-09-09T15:06:40.302Z,64.80
2023-09-09T15:09:07.024Z,65.20
2023-09-09T15:11:33.655Z,65.90
2023-09-09T15:14:02.985Z,65.20
2023-09-09T15:16:47.265Z,65.40
2023-09-09T15:19:14.525Z,65.60
2023-09-09T15:21:41.334Z,65.50
2023-09-09T15:24:08.499Z,65.00
2023-09-09T15:26:35.564Z,65.10
2023-09-09T15:29:02.271Z,64.90
2023-09-09T15:31:29.404Z,64.50
2023-09-09T15:33:56.055Z,64.30
2023-09-09T15:36:22.812Z,64.40
2023-09-09T15:38:49.476Z,64.30
2023-09-09T15:41:16.298Z,63.60
2023-09-09T15:43:47.613Z,63.60
2023-09-09T15:46:14.697Z,64.20
2023-09-09T15:48:41.534Z,64.40
2023-09-09T15:51:08.384Z,65.30
2023-09-09T15:53:35.417Z,67.00
2023-09-09T15:56:02.471Z,66.10
2023-09-09T15:58:29.243Z,65.80
2023-09-09T16:01:00.562Z,65.50
2023-09-09T16:03:27.308Z,65.00
2023-09-09T16:05:53.974Z,64.70
2023-09-09T16:08:22.418Z,65.10
2023-09-09T16:10:49.156Z,65.00
2023-09-09T16:13:15.925Z,65.00
2023-09-09T16:15:42.657Z,64.90
2023-09-09T16:18:09.354Z,64.60
2023-09-09T16:20:36.000Z,64.30
2023-09-09T16:23:02.725Z,65.10
2023-09-09T16:25:29.373Z,65.90
2023-09-09T16:27:56.039Z,66.10
2023-09-09T16:30:22.694Z,66.80
2023-09-09T16:32:49.362Z,67.00
2023-09-09T16:35:16.822Z,67.30
2023-09-09T16:37:43.461Z,67.20
2023-09-09T16:40:10.820Z,67.30
2023-09-09T16:42:37.435Z,67.20
2023-09-09T16:45:04.343Z,67.20
2023-09-09T16:47:30.982Z,67.60
2023-09-09T16:49:57.689Z,67.40
2023-09-09T16:52:24.446Z,67.80
2023-09-09T16:54:51.075Z,67.70
2023-09-09T16:57:17.728Z,68.10
2023-09-09T16:59:44.402Z,68.30
2023-09-09T17:02:11.553Z,68.30
2023-09-09T17:04:38.352Z,68.50
2023-09-09T17:07:05.318Z,68.80
2023-09-09T17:09:32.642Z,68.80
2023-09-09T17:11:59.429Z,69.10
2023-09-09T17:14:26.647Z,69.30
2023-09-09T17:16:53.362Z,69.70
2023-09-09T17:19:20.002Z,70.20
2023-09-09T17:21:46.647Z,70.90
2023-09-09T17:24:13.494Z,71.60
2023-09-09T17:26:40.301Z,72.10
2023-09-09T17:29:07.035Z,72.50
2023-09-09T17:31:33.849Z,73.10
2023-09-09T17:34:01.138Z,73.50
2023-09-09T17:36:29.044Z,73.90
2023-09-09T17:39:10.160Z,74.20
2023-09-09T17:41:37.730Z,74.80
2023-09-09T17:44:05.197Z,75.20
2023-09-09T17:46:32.553Z,75.70
2023-09-09T17:49:00.517Z,76.10
2023-09-09T17:51:28.387Z,76.20
2023-09-09T17:53:55.026Z,76.70
2023-09-09T17:56:21.753Z,77.00
2023-09-09T17:58:52.480Z,77.50
2023-09-09T18:01:26.924Z,78.10
2023-09-09T18:03:57.909Z,78.50
2023-09-09T18:06:24.790Z,78.90
2023-09-09T18:08:52.932Z,79.40
2023-09-09T18:11:21.701Z,79.80
2023-09-09T18:13:48.816Z,80.60
2023-09-09T18:16:16.349Z,80.80
2023-09-09T18:18:43.284Z,81.40
2023-09-09T18:21:10.183Z,81.70
2023-09-09T18:23:37.902Z,82.20
2023-09-09T18:26:05.065Z,82.40
2023-09-09T18:28:32.023Z,82.80
2023-09-09T18:31:04.082Z,83.40
2023-09-09T18:33:31.474Z,83.80
2023-09-09T18:35:59.021Z,84.10
2023-09-09T18:38:25.820Z,85.00
2023-09-09T18:40:54.235Z,84.90
2023-09-09T18:43:21.376Z,85.20
2023-09-09T18:45:49.270Z,85.60
2023-09-09T18:48:17.342Z,86.20
2023-09-09T18:50:44.383Z,86.10
2023-09-09T18:53:11.100Z,86.40
2023-09-09T18:55:38.038Z,86.80
2023-09-09T18:58:04.785Z,87.50
2023-09-09T19:00:31.753Z,87.40
2023-09-09T19:02:59.978Z,88.30
2023-09-09T19:05:27.629Z,88.20
2023-09-09T19:07:54.502Z,88.70
2023-09-09T19:10:21.204Z,89.10
2023-09-09T19:12:47.845Z,89.50
2023-09-09T19:15:16.622Z,89.70
2023-09-09T19:17:43.390Z,89.80
2023-09-09T19:20:13.316Z,90.30
2023-09-09T19:22:41.804Z,90.50
2023-09-09T19:25:09.828Z,90.80
2023-09-09T19:27:36.827Z,90.90
2023-09-09T19:30:04.957Z,91.10
2023-09-09T19:32:32.130Z,91.40
2023-09-09T19:34:59.302Z,91.60
2023-09-09T19:37:26.231Z,91.80
2023-09-09T19:40:00.192Z,92.00
2023-09-09T19:42:27.749Z,92.20
2023-09-09T19:44:58.403Z,92.60
2023-09-09T19:47:26.550Z,92.40
2023-09-09T19:49:54.181Z,92.70
2023-09-09T19:52:21.423Z,93.00
2023-09-09T19:54:48.224Z,93.00
2023-09-09T19:57:15.042Z,93.20
2023-09-09T19:59:41.840Z,93.30
2023-09-09T20:02:08.529Z,93.60
2023-09-09T20:04:35.285Z,93.80
2023-09-09T20:07:01.969Z,94.00
2023-09-09T20:09:28.616Z,94.30
2023-09-09T20:11:55.345Z,94.60
2023-09-09T20:14:22.188Z,94.70
2023-09-09T20:16:49.017Z,95.00
2023-09-09T20:19:15.809Z,95.20
2023-09-09T20:21:42.601Z,95.60
2023-09-09T20:24:09.353Z,95.90
2023-09-09T20:26:36.062Z,96.00
2023-09-09T20:29:02.878Z,96.40
2023-09-09T20:31:29.862Z,95.70
2023-09-09T20:33:56.598Z,95.20
2023-09-09T20:36:24.496Z,95.30
2023-09-09T20:38:51.302Z,95.50
2023-09-09T20:41:18.027Z,96.20
2023-09-09T20:43:44.815Z,96.60
2023-09-09T20:46:12.450Z,96.50
2023-09-09T20:48:39.639Z,96.80
2023-09-09T20:51:06.805Z,96.60
2023-09-09T20:53:36.625Z,96.90
2023-09-09T20:56:11.279Z,96.70
2023-09-09T20:58:38.903Z,96.70
2023-09-09T21:01:06.217Z,96.80
2023-09-09T21:03:33.031Z,97.00
2023-09-09T21:05:59.773Z,97.20
2023-09-09T21:08:26.441Z,97.30
2023-09-09T21:10:53.314Z,97.60
2023-09-09T21:13:22.296Z,97.70
2023-09-09T21:15:54.473Z,98.00
2023-09-09T21:18:21.223Z,98.30
2023-09-09T21:20:48.077Z,98.40
2023-09-09T21:23:14.740Z,98.60
2023-09-09T21:25:41.641Z,98.90
2023-09-09T21:28:08.979Z,99.20
2023-09-09T21:30:36.194Z,99.30
2023-09-09T21:33:03.849Z,99.70
2023-09-09T21:35:30.682Z,99.90
2023-09-09T21:37:57.347Z,99.90
2023-09-09T21:40:24.016Z,99.90
2023-09-09T21:42:50.731Z,99.90
2023-09-09T21:45:17.486Z,99.90
2023-09-09T21:47:44.167Z,99.90
2023-09-09T21:50:10.853Z,99.90
2023-09-09T21:52:37.504Z,99.90
2023-09-09T21:55:04.493Z,99.90
2023-09-09T21:57:31.195Z,99.90
2023-09-09T21:59:58.875Z,99.90
2023-09-09T22:02:25.600Z,99.90
2023-09-09T22:04:52.357Z,99.90
2023-09-09T22:07:20.597Z,99.90
2023-09-09T22:09:47.834Z,99.90
2023-09-09T22:12:14.549Z,99.90
2023-09-09T22:14:41.185Z,99.90
2023-09-09T22:17:07.964Z,99.90
2023-09-09T22:19:34.769Z,99.90
2023-09-09T22:22:01.392Z,99.90
2023-09-09T22:24:28.005Z,99.90
2023-09-09T22:27:00.173Z,99.90
2023-09-09T22:29:27.105Z,99.90
2023-09-09T22:31:54.822Z,99.90
2023-09-09T22:34:21.595Z,99.90
2023-09-09T22:36:48.186Z,99.90
2023-09-09T22:39:14.976Z,99.90
2023-09-09T22:41:41.628Z,99.90
2023-09-09T22:44:11.237Z,99.90
2023-09-09T22:46:37.947Z,99.90
2023-09-09T22:49:04.701Z,99.90
2023-09-09T22:51:31.316Z,99.90
2023-09-09T22:53:58.050Z,99.90
2023-09-09T22:56:24.702Z,99.90
2023-09-09T22:58:51.391Z,99.90
2023-09-09T23:01:18.240Z,99.90
2023-09-09T23:03:45.287Z,99.90
2023-09-09T23:06:13.068Z,99.90
2023-09-09T23:08:39.897Z,99.90
2023-09-09T23:11:12.245Z,99.90
2023-09-09T23:13:39.889Z,99.90
2023-09-09T23:16:07.132Z,99.90
2023-09-09T23:18:33.833Z,99.90
2023-09-09T23:21:00.504Z,99.90
2023-09-09T23:23:27.220Z,99.90
2023-09-09T23:25:55.285Z,99.90
2023-09-09T23:28:22.462Z,99.90
2023-09-09T23:31:01.924Z,99.90
2023-09-09T23:33:34.399Z,99.90
2023-09-09T23:36:04.726Z,99.90
2023-09-09T23:38:31.968Z,99.90
2023-09-09T23:40:58.714Z,99.90
2023-09-09T23:43:26.086Z,99.90
2023-09-09T23:45:53.098Z,99.90
2023-09-09T23:48:19.854Z,99.90
2023-09-09T23:50:46.607Z,99.90
2023-09-09T23:53:13.822Z,99.90
2023-09-09T23:55:40.805Z,99.90
2023-09-09T23:58:07.433Z,99.90
